createdAt,value
2017-09-08T00:01:45.867Z,12.60
2017-09-08T00:04:13.368Z,12.60
2017-09-08T00:06:41.387Z,12.60
2017-09-08T00:09:08.886Z,12.70
2017-09-08T00:11:37.905Z,12.60
2017-09-08T00:14:05.395Z,12.70
2017-09-08T00:16:34.044Z,12.60
2017-09-08T00:19:01.550Z,12.60
2017-09-08T00:21:29.253Z,12.60
2017-09-08T00:23:56.926Z,12.60
2017-09-08T00:26:24.577Z,12.50
2017-09-08T00:28:52.079Z,12.50
2017-09-08T00:31:19.665Z,12.50
2017-09-08T00:33:48.319Z,12.50
2017-09-08T00:36:16.219Z,12.50
2017-09-08T00:38:44.294Z,12.50
2017-09-08T00:41:12.005Z,12.60
2017-09-08T00:43:40.286Z,12.50
2017-09-08T00:46:07.783Z,12.50
2017-09-08T00:48:35.686Z,12.50
2017-09-08T00:51:03.203Z,12.40
2017-09-08T00:53:30.859Z,12.40
2017-09-08T00:55:58.364Z,12.40
2017-09-08T00:58:26.637Z,12.40
2017-09-08T01:00:54.130Z,12.40
2017-09-08T01:03:21.707Z,12.30
2017-09-08T01:05:49.198Z,12.40
2017-09-08T01:08:16.695Z,12.30
2017-09-08T01:10:44.963Z,12.30
2017-09-08T01:13:13.248Z,12.30
2017-09-08T01:15:41.234Z,12.30
2017-09-08T01:18:08.738Z,12.30
2017-09-08T01:20:36.232Z,12.30
2017-09-08T01:23:03.740Z,12.30
2017-09-08T01:25:32.018Z,12.30
2017-09-08T01:27:59.515Z,12.30
2017-09-08T01:30:27.203Z,12.30
2017-09-08T01:32:54.830Z,12.30
2017-09-08T01:35:22.328Z,12.30
2017-09-08T01:37:51.345Z,12.30
2017-09-08T01:40:19.051Z,12.30
2017-09-08T01:42:46.943Z,12.30
2017-09-08T01:45:14.566Z,12.30
2017-09-08T01:47:42.269Z,12.30
2017-09-08T01:50:09.759Z,12.30
2017-09-08T01:52:38.025Z,12.30
2017-09-08T01:55:06.443Z,12.30
2017-09-08T01:57:33.963Z,12.30
2017-09-08T02:00:02.237Z,12.20
2017-09-08T02:02:30.510Z,12.20
2017-09-08T02:04:58.792Z,12.30
2017-09-08T02:07:26.355Z,12.30
2017-09-08T02:09:54.247Z,12.30
2017-09-08T02:12:21.764Z,12.20
2017-09-08T02:14:50.151Z,12.20
2017-09-08T02:17:17.638Z,12.30
2017-09-08T02:19:45.267Z,12.30
2017-09-08T02:22:12.787Z,12.30
2017-09-08T02:24:41.419Z,12.30
2017-09-08T02:27:09.879Z,12.30
2017-09-08T02:29:37.787Z,12.40
2017-09-08T02:32:06.223Z,12.30
2017-09-08T02:34:34.291Z,12.30
2017-09-08T02:37:01.968Z,12.20
2017-09-08T02:39:31.000Z,12.20
2017-09-08T02:41:58.914Z,12.20
2017-09-08T02:44:26.573Z,12.20
2017-09-08T02:46:54.238Z,12.20
2017-09-08T02:49:22.887Z,12.20
2017-09-08T02:51:50.581Z,12.20
2017-09-08T02:54:19.247Z,12.20
2017-09-08T02:56:47.888Z,12.20
2017-09-08T02:59:16.171Z,12.20
2017-09-08T03:01:44.476Z,12.10
2017-09-08T03:04:11.995Z,12.10
2017-09-08T03:06:40.271Z,12.10
2017-09-08T03:09:09.308Z,12.00
2017-09-08T03:11:36.827Z,12.00
2017-09-08T03:14:05.227Z,12.00
2017-09-08T03:16:32.735Z,12.00
2017-09-08T03:19:00.245Z,12.00
2017-09-08T03:21:27.744Z,12.00
2017-09-08T03:23:55.256Z,11.90
2017-09-08T03:26:23.170Z,11.90
2017-09-08T03:28:50.672Z,11.90
2017-09-08T03:31:18.239Z,11.90
2017-09-08T03:33:46.509Z,11.90
2017-09-08T03:36:14.164Z,11.90
2017-09-08T03:38:41.675Z,11.90
2017-09-08T03:41:09.563Z,11.90
2017-09-08T03:43:37.947Z,11.90
2017-09-08T03:46:06.592Z,11.80
2017-09-08T03:48:34.291Z,11.80
2017-09-08T03:51:02.179Z,11.80
2017-09-08T03:53:29.673Z,11.80
2017-09-08T03:55:57.270Z,11.80
2017-09-08T03:58:24.819Z,11.80
2017-09-08T04:00:52.311Z,11.80
2017-09-08T04:03:19.842Z,11.80
2017-09-08T04:05:47.362Z,11.80
2017-09-08T04:08:15.374Z,11.80
2017-09-08T04:10:42.887Z,11.70
2017-09-08T04:13:11.895Z,11.70
2017-09-08T04:15:39.565Z,11.70
2017-09-08T04:18:07.823Z,11.60
2017-09-08T04:20:35.320Z,11.60
2017-09-08T04:23:02.812Z,11.60
2017-09-08T04:25:31.817Z,11.60
2017-09-08T04:27:59.312Z,11.60
2017-09-08T04:30:26.804Z,11.60
2017-09-08T04:32:54.817Z,11.60
2017-09-08T04:35:22.330Z,11.60
2017-09-08T04:37:50.603Z,11.60
2017-09-08T04:40:18.875Z,11.60
2017-09-08T04:42:47.531Z,11.70
2017-09-08T04:45:15.031Z,11.70
2017-09-08T04:47:43.319Z,11.70
2017-09-08T04:50:10.859Z,11.70
2017-09-08T04:52:38.538Z,11.60
2017-09-08T04:55:07.205Z,11.60
2017-09-08T04:57:34.892Z,11.60
2017-09-08T05:00:03.203Z,11.60
2017-09-08T05:02:32.224Z,11.60
2017-09-08T05:04:59.747Z,11.60
2017-09-08T05:07:27.239Z,11.60
2017-09-08T05:09:54.826Z,11.60
2017-09-08T05:12:22.905Z,11.60
2017-09-08T05:14:50.834Z,11.70
2017-09-08T05:17:19.228Z,11.70
2017-09-08T05:19:47.286Z,11.70
2017-09-08T05:22:15.943Z,11.80
2017-09-08T05:27:12.344Z,11.80
2017-09-08T05:32:09.036Z,11.90
2017-09-08T05:34:36.536Z,11.80
2017-09-08T05:37:04.044Z,11.80
2017-09-08T05:39:32.704Z,11.80
2017-09-08T05:42:00.315Z,11.80
2017-09-08T05:44:27.823Z,11.90
2017-09-08T05:46:55.340Z,11.90
2017-09-08T05:49:22.895Z,11.90
2017-09-08T05:51:50.394Z,12.00
2017-09-08T05:54:17.907Z,12.00
2017-09-08T05:56:45.455Z,12.10
2017-09-08T05:59:12.963Z,12.20
2017-09-08T06:01:40.559Z,12.20
2017-09-08T06:04:09.615Z,12.30
2017-09-08T06:06:37.883Z,12.30
2017-09-08T06:09:05.583Z,12.30
2017-09-08T06:11:33.103Z,12.30
2017-09-08T06:14:01.519Z,12.40
2017-09-08T06:16:29.033Z,12.40
2017-09-08T06:18:56.633Z,12.50
2017-09-08T06:21:24.131Z,12.60
2017-09-08T06:23:51.743Z,12.70
2017-09-08T06:26:19.240Z,12.80
2017-09-08T06:31:16.459Z,13.20
2017-09-08T06:33:44.434Z,13.20
2017-09-08T06:36:11.940Z,13.40
2017-09-08T06:38:39.827Z,13.50
2017-09-08T06:41:07.719Z,13.60
2017-09-08T06:43:36.082Z,13.70
2017-09-08T06:46:03.607Z,13.70
2017-09-08T06:48:32.239Z,13.70
2017-09-08T06:50:59.871Z,13.80
2017-09-08T06:53:28.518Z,13.90
2017-09-08T06:55:56.225Z,14.10
2017-09-08T06:58:23.735Z,14.10
2017-09-08T07:00:51.634Z,14.30
2017-09-08T07:03:19.901Z,14.50
2017-09-08T07:05:48.199Z,14.50
2017-09-08T07:08:16.468Z,14.60
2017-09-08T07:10:45.490Z,14.60
2017-09-08T07:13:13.833Z,14.70
2017-09-08T07:15:42.521Z,14.70
2017-09-08T07:18:10.414Z,14.70
2017-09-08T07:20:37.934Z,14.70
2017-09-08T07:25:35.855Z,14.90
2017-09-08T07:30:32.403Z,15.10
2017-09-08T07:32:59.895Z,15.20
2017-09-08T07:35:28.169Z,15.20
2017-09-08T07:37:55.732Z,15.20
2017-09-08T07:40:23.227Z,15.30
2017-09-08T07:42:50.880Z,15.30
2017-09-08T07:45:18.370Z,15.30
2017-09-08T07:47:45.963Z,15.40
2017-09-08T07:50:13.459Z,15.50
2017-09-08T07:52:41.075Z,15.50
2017-09-08T07:55:08.575Z,15.50
2017-09-08T07:57:36.186Z,15.50
2017-09-08T08:00:04.876Z,15.60
2017-09-08T08:02:32.407Z,15.60
2017-09-08T08:05:01.056Z,15.70
2017-09-08T08:07:28.983Z,15.70
2017-09-08T08:09:57.367Z,15.90
2017-09-08T08:12:24.859Z,15.90
2017-09-08T08:14:52.487Z,16.10
2017-09-08T08:17:19.986Z,16.30
2017-09-08T08:19:48.387Z,16.30
2017-09-08T08:22:15.900Z,16.40
2017-09-08T08:24:43.398Z,16.50
2017-09-08T08:27:10.959Z,16.60
2017-09-08T08:29:38.620Z,16.80
2017-09-08T08:32:06.888Z,16.90
2017-09-08T08:34:34.543Z,17.00
2017-09-08T08:37:02.037Z,17.10
2017-09-08T08:39:29.554Z,17.20
2017-09-08T08:41:57.066Z,17.40
2017-09-08T08:44:24.580Z,17.50
2017-09-08T08:46:52.082Z,17.60
2017-09-08T08:49:19.614Z,17.60
2017-09-08T08:51:47.122Z,17.80
2017-09-08T08:54:14.791Z,17.90
2017-09-08T08:56:42.475Z,18.10
2017-09-08T08:59:09.986Z,18.20
2017-09-08T09:01:38.270Z,18.20
2017-09-08T09:04:05.844Z,18.20
2017-09-08T09:06:33.499Z,18.30
2017-09-08T09:09:01.515Z,18.40
2017-09-08T09:11:29.227Z,18.40
2017-09-08T09:13:56.894Z,18.40
2017-09-08T09:16:24.435Z,18.50
2017-09-08T09:18:51.931Z,18.50
2017-09-08T09:21:19.456Z,18.50
2017-09-08T09:23:46.947Z,18.50
2017-09-08T09:26:15.293Z,18.40
2017-09-08T09:28:42.837Z,18.50
2017-09-08T09:31:10.503Z,18.40
2017-09-08T09:33:38.411Z,18.30
2017-09-08T09:36:05.936Z,18.30
2017-09-08T09:38:33.454Z,18.50
2017-09-08T09:41:00.971Z,18.50
2017-09-08T09:45:58.143Z,18.40
2017-09-08T09:48:27.159Z,18.40
2017-09-08T09:50:54.659Z,18.60
2017-09-08T09:53:22.927Z,18.60
2017-09-08T09:55:50.559Z,18.50
2017-09-08T09:58:18.215Z,18.50
2017-09-08T10:00:45.891Z,18.40
2017-09-08T10:03:13.399Z,18.40
2017-09-08T10:05:40.991Z,18.60
2017-09-08T10:08:09.073Z,18.70
2017-09-08T10:10:36.718Z,18.70
2017-09-08T10:13:04.391Z,18.70
2017-09-08T10:15:31.888Z,18.70
2017-09-08T10:17:59.503Z,18.80
2017-09-08T10:20:27.002Z,19.00
2017-09-08T10:25:23.503Z,18.90
2017-09-08T10:27:52.528Z,18.90
2017-09-08T10:30:20.051Z,19.20
2017-09-08T10:32:47.545Z,19.10
2017-09-08T10:35:15.068Z,19.30
2017-09-08T10:40:15.536Z,19.80
2017-09-08T10:42:43.043Z,19.90
2017-09-08T10:45:12.061Z,19.80
2017-09-08T10:47:39.954Z,19.70
2017-09-08T10:50:07.482Z,19.60
2017-09-08T10:52:34.978Z,19.50
2017-09-08T10:55:03.259Z,19.30
2017-09-08T10:57:31.667Z,19.10
2017-09-08T10:59:59.571Z,18.90
2017-09-08T11:02:27.078Z,18.90
2017-09-08T11:04:56.282Z,18.80
2017-09-08T11:07:24.579Z,18.80
2017-09-08T11:09:52.082Z,18.90
2017-09-08T11:12:20.346Z,18.80
2017-09-08T11:14:48.359Z,18.80
2017-09-08T11:17:15.879Z,18.80
2017-09-08T11:19:44.883Z,18.80
2017-09-08T11:22:12.541Z,18.80
2017-09-08T11:24:40.051Z,18.90
2017-09-08T11:29:38.017Z,18.80
2017-09-08T11:32:06.461Z,18.90
2017-09-08T11:34:40.367Z,18.90
2017-09-08T11:37:09.210Z,18.80
2017-09-08T11:39:37.847Z,18.80
2017-09-08T11:42:06.483Z,18.90
2017-09-08T11:44:34.380Z,18.80
2017-09-08T11:47:02.649Z,18.70
2017-09-08T11:49:30.555Z,18.70
2017-09-08T11:51:58.078Z,18.70
2017-09-08T11:54:25.600Z,18.70
2017-09-08T11:56:53.103Z,18.70
2017-09-08T11:59:21.019Z,18.70
2017-09-08T12:01:49.334Z,18.70
2017-09-08T12:04:16.855Z,18.70
2017-09-08T12:06:45.483Z,18.90
2017-09-08T12:09:13.755Z,18.90
2017-09-08T12:11:41.284Z,18.80
2017-09-08T12:14:09.353Z,18.90
2017-09-08T12:16:37.008Z,18.80
2017-09-08T12:19:04.663Z,18.90
2017-09-08T12:21:32.750Z,18.80
2017-09-08T12:24:00.255Z,18.90
2017-09-08T12:26:28.663Z,18.80
2017-09-08T12:28:56.334Z,18.90
2017-09-08T12:31:23.997Z,18.80
2017-09-08T12:33:51.491Z,18.80
2017-09-08T12:36:19.006Z,18.80
2017-09-08T12:38:46.503Z,18.90
2017-09-08T12:41:14.783Z,18.90
2017-09-08T12:43:42.298Z,19.00
2017-09-08T12:46:09.956Z,19.00
2017-09-08T12:48:37.847Z,18.90
2017-09-08T12:51:06.496Z,18.80
2017-09-08T12:53:34.783Z,18.80
2017-09-08T12:56:02.280Z,18.80
2017-09-08T12:58:30.179Z,18.80
2017-09-08T13:00:58.813Z,18.70
2017-09-08T13:03:26.721Z,18.70
2017-09-08T13:05:54.241Z,18.70
2017-09-08T13:08:21.939Z,18.80
2017-09-08T13:10:49.599Z,18.80
2017-09-08T13:13:17.115Z,18.70
2017-09-08T13:15:45.398Z,18.70
2017-09-08T13:18:13.680Z,18.80
2017-09-08T13:23:15.584Z,18.90
2017-09-08T13:25:43.855Z,18.90
2017-09-08T13:28:11.351Z,18.90
2017-09-08T13:30:39.987Z,18.90
2017-09-08T13:33:07.480Z,19.00
2017-09-08T13:35:34.974Z,19.00
2017-09-08T13:38:03.672Z,19.00
2017-09-08T13:40:31.184Z,19.00
2017-09-08T13:42:58.783Z,19.00
2017-09-08T13:45:27.759Z,19.00
2017-09-08T13:47:55.255Z,19.00
2017-09-08T13:50:23.192Z,19.00
2017-09-08T13:52:50.691Z,19.00
2017-09-08T13:55:18.303Z,19.00
2017-09-08T13:57:45.969Z,19.00
2017-09-08T14:00:14.251Z,19.00
2017-09-08T14:02:42.251Z,19.00
2017-09-08T14:05:09.804Z,19.00
2017-09-08T14:07:37.329Z,18.90
2017-09-08T14:10:04.879Z,18.90
2017-09-08T14:12:32.383Z,18.80
2017-09-08T14:15:00.004Z,18.80
2017-09-08T14:17:27.524Z,18.80
2017-09-08T14:19:55.915Z,18.80
2017-09-08T14:22:24.011Z,18.90
2017-09-08T14:24:51.508Z,18.90
2017-09-08T14:27:19.060Z,18.90
2017-09-08T14:29:46.766Z,18.90
2017-09-08T14:32:15.786Z,18.80
2017-09-08T14:34:43.303Z,18.80
2017-09-08T14:37:10.828Z,18.80
2017-09-08T14:42:07.405Z,18.80
2017-09-08T14:44:34.971Z,18.80
2017-09-08T14:47:02.496Z,18.80
2017-09-08T14:49:30.769Z,18.90
2017-09-08T14:51:59.797Z,18.90
2017-09-08T14:54:27.295Z,18.90
2017-09-08T14:56:54.810Z,19.00
2017-09-08T14:59:22.356Z,18.90
2017-09-08T15:01:49.855Z,18.90
2017-09-08T15:04:17.355Z,18.80
2017-09-08T15:06:44.872Z,18.90
2017-09-08T15:09:12.403Z,18.90
2017-09-08T15:11:40.043Z,18.90
2017-09-08T15:14:07.684Z,18.90
2017-09-08T15:16:35.197Z,18.90
2017-09-08T15:19:02.796Z,18.90
2017-09-08T15:21:31.063Z,18.90
2017-09-08T15:23:59.424Z,18.90
2017-09-08T15:26:27.832Z,18.90
2017-09-08T15:28:55.731Z,18.90
2017-09-08T15:31:23.358Z,18.90
2017-09-08T15:33:51.631Z,18.90
2017-09-08T15:36:19.159Z,18.90
2017-09-08T15:38:46.667Z,19.00
2017-09-08T15:41:14.163Z,18.90
2017-09-08T15:43:41.855Z,19.00
2017-09-08T15:46:10.204Z,19.00
2017-09-08T15:48:38.610Z,19.00
2017-09-08T15:51:06.176Z,19.00
2017-09-08T15:53:33.687Z,19.00
2017-09-08T15:56:01.217Z,19.00
2017-09-08T15:58:28.714Z,19.00
2017-09-08T16:00:56.256Z,19.10
2017-09-08T16:03:24.575Z,19.00
2017-09-08T16:05:52.214Z,19.00
2017-09-08T16:08:19.722Z,19.10
2017-09-08T16:10:47.617Z,19.00
2017-09-08T16:13:16.252Z,19.00
2017-09-08T16:15:43.757Z,19.10
2017-09-08T16:18:11.315Z,19.10
2017-09-08T16:20:38.977Z,19.10
2017-09-08T16:23:06.902Z,19.00
2017-09-08T16:25:35.271Z,19.00
2017-09-08T16:28:03.196Z,19.00
2017-09-08T16:30:30.695Z,18.90
2017-09-08T16:32:59.367Z,18.90
2017-09-08T16:35:27.795Z,19.00
2017-09-08T16:37:55.719Z,18.90
2017-09-08T16:40:23.339Z,19.00
2017-09-08T16:42:51.609Z,18.90
2017-09-08T16:45:19.103Z,18.90
2017-09-08T16:47:48.193Z,18.90
2017-09-08T16:50:16.469Z,18.90
2017-09-08T16:52:44.730Z,18.90
2017-09-08T16:55:12.231Z,18.90
2017-09-08T16:57:41.256Z,18.80
2017-09-08T17:00:09.911Z,18.70
2017-09-08T17:02:37.416Z,18.70
2017-09-08T17:05:04.940Z,18.70
2017-09-08T17:07:32.847Z,18.70
2017-09-08T17:10:00.403Z,18.60
2017-09-08T17:12:27.909Z,18.60
2017-09-08T17:14:55.439Z,18.60
2017-09-08T17:17:23.338Z,18.50
2017-09-08T17:19:51.238Z,18.50
2017-09-08T17:22:19.516Z,18.50
2017-09-08T17:24:47.055Z,18.40
2017-09-08T17:27:15.338Z,18.50
2017-09-08T17:29:42.839Z,18.50
2017-09-08T17:32:10.364Z,18.40
2017-09-08T17:34:38.632Z,18.30
2017-09-08T17:37:07.008Z,18.30
2017-09-08T17:39:35.111Z,18.20
2017-09-08T17:42:03.027Z,18.10
2017-09-08T17:44:31.465Z,18.10
2017-09-08T17:46:59.761Z,18.00
2017-09-08T17:49:27.311Z,18.10
2017-09-08T17:51:54.815Z,18.10
2017-09-08T17:54:22.513Z,18.00
2017-09-08T17:56:50.013Z,18.00
2017-09-08T17:59:18.275Z,18.00
2017-09-08T18:01:45.939Z,18.00
2017-09-08T18:04:13.560Z,17.90
2017-09-08T18:06:41.202Z,17.80
2017-09-08T18:09:08.744Z,17.80
2017-09-08T18:11:36.724Z,17.80
2017-09-08T18:14:04.273Z,17.80
2017-09-08T18:16:31.846Z,17.70
2017-09-08T18:18:59.349Z,17.80
2017-09-08T18:23:56.220Z,17.70
2017-09-08T18:26:24.489Z,17.70
2017-09-08T18:28:52.393Z,17.70
2017-09-08T18:31:19.904Z,17.60
2017-09-08T18:33:48.190Z,17.60
2017-09-08T18:36:16.475Z,17.50
2017-09-08T18:38:45.489Z,17.50
2017-09-08T18:41:13.427Z,17.40
2017-09-08T18:43:41.327Z,17.40
2017-09-08T18:46:08.847Z,17.40
2017-09-08T18:48:37.122Z,17.40
2017-09-08T18:51:04.646Z,17.30
2017-09-08T18:53:32.933Z,17.20
2017-09-08T18:56:01.736Z,17.20
2017-09-08T18:58:29.266Z,17.20
2017-09-08T19:00:56.791Z,17.20
2017-09-08T19:03:24.311Z,17.20
2017-09-08T19:05:52.216Z,17.10
2017-09-08T19:08:20.144Z,17.10
2017-09-08T19:10:49.709Z,17.10
2017-09-08T19:13:18.873Z,17.10
2017-09-08T19:15:46.399Z,17.00
2017-09-08T19:18:14.684Z,17.00
2017-09-08T19:20:42.213Z,17.00
2017-09-08T19:23:09.751Z,16.90
2017-09-08T19:25:37.263Z,16.80
2017-09-08T19:28:05.182Z,16.80
2017-09-08T19:30:32.723Z,16.70
2017-09-08T19:33:00.274Z,16.70
2017-09-08T19:35:27.790Z,16.70
2017-09-08T19:37:55.287Z,16.60
2017-09-08T19:40:22.879Z,16.60
2017-09-08T19:42:50.775Z,16.60
2017-09-08T19:45:18.323Z,16.50
2017-09-08T19:47:45.840Z,16.50
2017-09-08T19:50:13.390Z,16.40
2017-09-08T19:52:41.692Z,16.40
2017-09-08T19:55:09.234Z,16.40
2017-09-08T19:57:36.775Z,16.40
2017-09-08T20:00:05.063Z,16.40
2017-09-08T20:02:33.031Z,16.40
2017-09-08T20:05:00.957Z,16.50
2017-09-08T20:07:28.482Z,16.40
2017-09-08T20:09:56.427Z,16.30
2017-09-08T20:12:24.031Z,16.30
2017-09-08T20:14:51.966Z,16.30
2017-09-08T20:17:19.870Z,16.30
2017-09-08T20:19:48.927Z,16.20
2017-09-08T20:22:20.035Z,16.20
2017-09-08T20:24:47.595Z,16.10
2017-09-08T20:27:15.108Z,16.10
2017-09-08T20:29:43.419Z,16.00
2017-09-08T20:32:10.915Z,16.00
2017-09-08T20:34:38.466Z,16.00
2017-09-08T20:37:06.000Z,15.90
2017-09-08T20:39:33.519Z,15.90
2017-09-08T20:42:01.420Z,15.90
2017-09-08T20:44:28.985Z,15.90
2017-09-08T20:46:56.511Z,15.80
2017-09-08T20:49:24.783Z,15.80
2017-09-08T20:51:52.323Z,15.90
2017-09-08T20:54:20.615Z,15.90
2017-09-08T20:56:48.511Z,15.90
2017-09-08T20:59:16.051Z,15.80
2017-09-08T21:01:43.619Z,15.80
2017-09-08T21:04:11.556Z,15.80
2017-09-08T21:06:39.872Z,15.80
2017-09-08T21:09:08.139Z,15.70
2017-09-08T21:11:37.167Z,15.80
2017-09-08T21:14:05.613Z,15.70
2017-09-08T21:16:33.915Z,15.70
2017-09-08T21:19:01.411Z,15.60
2017-09-08T21:21:28.917Z,15.50
2017-09-08T21:23:56.411Z,15.50
2017-09-08T21:26:23.912Z,15.50
2017-09-08T21:28:52.180Z,15.50
2017-09-08T21:31:20.535Z,15.40
2017-09-08T21:33:48.433Z,15.40
2017-09-08T21:36:15.957Z,15.40
2017-09-08T21:38:43.486Z,15.40
2017-09-08T21:41:11.755Z,15.30
2017-09-08T21:43:40.043Z,15.30
2017-09-08T21:46:07.555Z,15.20
2017-09-08T21:48:35.126Z,15.20
2017-09-08T21:51:02.675Z,15.20
2017-09-08T21:53:30.571Z,15.20
2017-09-08T21:55:58.085Z,15.20
2017-09-08T21:58:25.584Z,15.20
2017-09-08T22:00:54.211Z,15.10
2017-09-08T22:03:21.715Z,15.10
2017-09-08T22:05:50.372Z,15.00
2017-09-08T22:08:17.874Z,15.00
2017-09-08T22:10:45.384Z,14.90
2017-09-08T22:13:12.879Z,14.90
2017-09-08T22:15:40.402Z,15.00
2017-09-08T22:18:08.676Z,15.00
2017-09-08T22:20:37.326Z,15.00
2017-09-08T22:23:05.226Z,15.00
2017-09-08T22:25:33.889Z,15.00
2017-09-08T22:28:01.418Z,15.00
2017-09-08T22:30:29.744Z,15.00
2017-09-08T22:32:57.243Z,15.00
2017-09-08T22:35:24.763Z,14.90
2017-09-08T22:37:53.763Z,14.90
2017-09-08T22:40:21.279Z,14.80
2017-09-08T22:42:48.772Z,14.80
2017-09-08T22:45:16.266Z,14.70
2017-09-08T22:47:44.531Z,14.70
2017-09-08T22:50:12.024Z,14.70
2017-09-08T22:52:39.535Z,14.70
2017-09-08T22:55:08.547Z,14.60
2017-09-08T22:57:36.068Z,14.60
2017-09-08T23:00:04.326Z,14.60
2017-09-08T23:02:31.871Z,14.60
2017-09-08T23:04:59.768Z,14.60
2017-09-08T23:07:27.287Z,14.60
2017-09-08T23:09:55.939Z,14.60
2017-09-08T23:12:23.475Z,14.60
2017-09-08T23:14:50.977Z,14.50
2017-09-08T23:17:18.483Z,14.50
2017-09-08T23:19:46.375Z,14.50
2017-09-08T23:24:42.741Z,14.50
2017-09-08T23:27:10.243Z,14.50
2017-09-08T23:29:37.736Z,14.60
2017-09-08T23:32:05.256Z,14.50
2017-09-08T23:34:32.778Z,14.40
2017-09-08T23:37:00.267Z,14.40
2017-09-08T23:39:27.787Z,14.30
2017-09-08T23:41:55.688Z,14.40
2017-09-08T23:44:23.211Z,14.30
2017-09-08T23:46:50.712Z,14.30
2017-09-08T23:49:18.227Z,14.30
2017-09-08T23:51:45.755Z,14.30
2017-09-08T23:54:13.291Z,14.20
2017-09-08T23:56:40.791Z,14.20
2017-09-08T23:59:08.683Z,14.20
